Time;durP1;ratioP1;P1;durP2;ratioP2;P2;SDS_P1;SDS_P2;PMS_P1;PMS_P2;Temp;Humidity;BMP_temperature;BMP_pressure;BME280_temperature;BME280_humidity;BME280_pressure;Samples;Min_cycle;Max_cycle;Signal;HPM_P1;HPM_P2
2024/03/13 00:02:13;;;;;;;12.88;2.00;;;;;;;;;;4991189;28;20110;-96
2024/03/13 00:04:43;;;;;;;9.95;1.63;;;;;;;;;;4991959;28;20121;-95
2024/03/13 00:07:13;;;;;;;7.22;1.55;;;;;;;;;;4994961;28;20061;-95
2024/03/13 00:09:49;;;;;;;15.30;1.83;;;;;;;;;;4995545;28;20042;-95
2024/03/13 00:12:15;;;;;;;9.10;2.08;;;;;;;;;;4994509;28;20022;-95
2024/03/13 00:14:49;;;;;;;17.55;1.98;;;;;;;;;;4995883;28;20021;-96
2024/03/13 00:17:16;;;;;;;11.88;2.10;;;;;;;;;;4994452;28;20050;-94
2024/03/13 00:19:41;;;;;;;14.68;1.83;;;;;;;;;;4994370;28;20014;-95
2024/03/13 00:22:07;;;;;;;10.77;2.97;;;;;;;;;;4995390;28;20030;-95
2024/03/13 00:24:32;;;;;;;18.15;2.00;;;;;;;;;;4995431;28;20097;-95
2024/03/13 00:26:57;;;;;;;10.23;2.25;;;;;;;;;;4995391;28;20018;-96
2024/03/13 00:29:25;;;;;;;9.82;1.65;;;;;;;;;;4994124;28;20014;-95
2024/03/13 00:31:50;;;;;;;19.05;2.03;;;;;;;;;;4994059;28;20026;-95
2024/03/13 00:34:15;;;;;;;12.43;2.22;;;;;;;;;;4994400;28;20022;-95
2024/03/13 00:36:40;;;;;;;9.73;2.05;;;;;;;;;;4993699;28;20022;-96
2024/03/13 00:39:06;;;;;;;11.67;1.87;;;;;;;;;;4995197;28;20030;-96
2024/03/13 00:41:31;;;;;;;8.32;1.75;;;;;;;;;;4994162;28;20256;-96
2024/03/13 00:43:56;;;;;;;11.73;2.17;;;;;;;;;;4993991;28;20532;-95
2024/03/13 00:46:23;;;;;;;10.63;1.83;;;;;;;;;;4994820;28;20695;-95
2024/03/13 00:48:48;;;;;;;8.07;1.58;;;;;;;;;;4994185;28;20029;-95
2024/03/13 00:51:14;;;;;;;7.40;1.60;;;;;;;;;;4993829;28;20109;-93
2024/03/13 00:53:39;;;;;;;13.47;2.63;;;;;;;;;;4993793;28;20104;-96
2024/03/13 00:56:04;;;;;;;10.30;1.60;;;;;;;;;;4994830;28;20327;-94
2024/03/13 00:58:30;;;;;;;9.52;1.65;;;;;;;;;;4993651;28;20030;-95
2024/03/13 01:00:55;;;;;;;7.33;1.67;;;;;;;;;;4993671;28;20026;-96
2024/03/13 01:03:22;;;;;;;9.63;1.80;;;;;;;;;;4993711;28;20260;-96
2024/03/13 01:05:47;;;;;;;6.07;1.58;;;;;;;;;;4993631;28;20492;-95
2024/03/13 01:08:14;;;;;;;7.93;1.30;;;;;;;;;;4994768;28;20014;-95
2024/03/13 01:10:39;;;;;;;12.65;1.50;;;;;;;;;;4993377;28;20136;-95
2024/03/13 01:13:05;;;;;;;9.77;1.48;;;;;;;;;;4993457;28;20469;-94
2024/03/13 01:15:30;;;;;;;8.15;1.38;;;;;;;;;;4992772;28;20018;-95
2024/03/13 01:17:57;;;;;;;9.07;1.70;;;;;;;;;;4993153;28;20092;-94
2024/03/13 01:20:23;;;;;;;11.35;1.15;;;;;;;;;;4993179;28;20046;-95
2024/03/13 01:22:49;;;;;;;14.63;1.67;;;;;;;;;;4992906;28;20085;-95
2024/03/13 01:25:14;;;;;;;7.85;1.20;;;;;;;;;;4993130;28;20424;-95
2024/03/13 01:27:41;;;;;;;5.43;1.05;;;;;;;;;;4993138;28;20117;-95
2024/03/13 01:30:08;;;;;;;8.85;1.35;;;;;;;;;;4994151;28;20014;-95
2024/03/13 01:32:33;;;;;;;5.05;1.02;;;;;;;;;;4992932;28;20027;-95
2024/03/13 01:34:58;;;;;;;7.47;1.57;;;;;;;;;;4992992;28;20014;-95
2024/03/13 01:40:09;;;;;;;7.60;1.08;;;;;;;;;;4994384;28;20287;-95
2024/03/13 01:56:37;;;;;;;5.45;0.93;;;;;;;;;;4993823;28;20033;-95
2024/03/13 01:59:20;;;;;;;7.75;0.98;;;;;;;;;;4993410;28;20027;-96
2024/03/13 02:04:30;;;;;;;2.42;0.55;;;;;;;;;;4993710;28;20278;-95
2024/03/13 02:06:55;;;;;;;9.15;1.23;;;;;;;;;;4993396;28;20072;-95
2024/03/13 02:09:23;;;;;;;4.32;1.00;;;;;;;;;;4992160;28;20424;-96
2024/03/13 02:11:49;;;;;;;3.95;0.93;;;;;;;;;;4992244;28;20027;-95
2024/03/13 02:14:14;;;;;;;5.63;0.77;;;;;;;;;;4993465;28;20025;-96
2024/03/13 02:16:40;;;;;;;3.60;1.10;;;;;;;;;;4992379;28;20022;-96
2024/03/13 02:19:06;;;;;;;4.75;1.05;;;;;;;;;;4992349;28;20488;-95
2024/03/13 02:21:32;;;;;;;6.65;1.23;;;;;;;;;;4992142;28;20465;-96
2024/03/13 02:23:58;;;;;;;5.60;0.60;;;;;;;;;;4992203;28;20117;-96
2024/03/13 02:26:24;;;;;;;4.45;1.15;;;;;;;;;;4991976;28;20455;-95
2024/03/13 02:28:51;;;;;;;10.93;1.45;;;;;;;;;;4991153;28;20030;-95
2024/03/13 02:31:16;;;;;;;7.15;1.00;;;;;;;;;;4993200;28;20049;-95
2024/03/13 02:33:43;;;;;;;1.95;0.40;;;;;;;;;;4991942;28;20018;-95
2024/03/13 02:36:08;;;;;;;6.78;1.02;;;;;;;;;;4991805;28;20018;-95
2024/03/13 02:38:34;;;;;;;5.90;1.23;;;;;;;;;;4991703;28;20496;-95
2024/03/13 02:40:59;;;;;;;7.13;1.58;;;;;;;;;;4991556;28;20025;-95
2024/03/13 02:43:24;;;;;;;3.72;1.35;;;;;;;;;;4993085;28;20029;-94
2024/03/13 02:45:50;;;;;;;4.30;0.80;;;;;;;;;;4992853;28;20019;-96
2024/03/13 02:48:16;;;;;;;3.05;0.75;;;;;;;;;;4991411;28;20463;-96
2024/03/13 02:50:42;;;;;;;3.28;0.73;;;;;;;;;;4991983;28;20133;-96
2024/03/13 02:53:07;;;;;;;4.55;0.80;;;;;;;;;;4991647;28;20030;-95
2024/03/13 02:55:33;;;;;;;4.57;0.68;;;;;;;;;;4992686;28;20033;-95
2024/03/13 02:57:58;;;;;;;5.57;0.45;;;;;;;;;;4991759;28;20069;-96
2024/03/13 03:00:25;;;;;;;4.63;1.00;;;;;;;;;;4991633;28;20046;-96
2024/03/13 03:02:51;;;;;;;4.25;0.65;;;;;;;;;;4991617;28;20049;-95
2024/03/13 03:05:18;;;;;;;2.97;0.52;;;;;;;;;;4993170;28;20393;-96
2024/03/13 03:07:43;;;;;;;6.80;1.67;;;;;;;;;;4992074;28;20058;-96
2024/03/13 03:10:09;;;;;;;5.00;1.20;;;;;;;;;;4991717;28;20132;-95
2024/03/13 03:12:34;;;;;;;6.45;0.73;;;;;;;;;;4991874;28;20018;-95
2024/03/13 03:15:00;;;;;;;6.70;0.68;;;;;;;;;;4991525;28;20362;-96
2024/03/13 03:17:25;;;;;;;8.43;1.08;;;;;;;;;;4991249;28;20058;-95
2024/03/13 03:19:51;;;;;;;5.88;0.80;;;;;;;;;;4992695;28;20025;-95
2024/03/13 03:22:17;;;;;;;8.25;0.60;;;;;;;;;;4991478;28;20038;-96
2024/03/13 03:24:42;;;;;;;3.42;0.47;;;;;;;;;;4991689;28;20035;-96
2024/03/13 03:27:08;;;;;;;4.60;0.65;;;;;;;;;;4992694;28;20018;-95
2024/03/13 03:29:33;;;;;;;7.13;0.80;;;;;;;;;;4991797;28;20035;-96
2024/03/13 03:31:59;;;;;;;8.98;0.68;;;;;;;;;;4992729;28;20034;-95
2024/03/13 03:34:24;;;;;;;3.08;0.80;;;;;;;;;;4991615;28;20048;-96
2024/03/13 03:36:50;;;;;;;10.52;0.93;;;;;;;;;;4991177;28;20073;-94
2024/03/13 03:39:15;;;;;;;3.50;0.50;;;;;;;;;;4992953;28;20117;-94
2024/03/13 03:41:41;;;;;;;3.17;0.70;;;;;;;;;;4996352;28;20025;-94
2024/03/13 03:44:11;;;;;;;4.85;1.25;;;;;;;;;;4995372;28;20026;-94
2024/03/13 03:46:36;;;;;;;8.18;0.65;;;;;;;;;;4995027;28;20113;-94
2024/03/13 03:49:01;;;;;;;5.95;0.80;;;;;;;;;;4995151;28;20160;-94
2024/03/13 03:51:26;;;;;;;5.10;0.82;;;;;;;;;;4995026;28;20389;-94
2024/03/13 03:53:52;;;;;;;3.85;0.68;;;;;;;;;;4995008;28;20022;-94
2024/03/13 03:56:17;;;;;;;6.00;0.93;;;;;;;;;;4994663;28;20038;-94
2024/03/13 03:58:47;;;;;;;5.17;0.90;;;;;;;;;;4995161;28;20343;-94
2024/03/13 04:01:13;;;;;;;6.50;0.70;;;;;;;;;;4995010;28;20260;-95
2024/03/13 04:03:41;;;;;;;3.05;0.65;;;;;;;;;;4995335;28;20022;-94
2024/03/13 04:06:06;;;;;;;7.72;0.80;;;;;;;;;;4994630;28;20018;-94
2024/03/13 04:08:32;;;;;;;6.55;0.85;;;;;;;;;;4994804;28;20495;-94
2024/03/13 04:10:57;;;;;;;5.35;0.70;;;;;;;;;;4995052;28;20057;-94
2024/03/13 04:13:22;;;;;;;5.88;0.82;;;;;;;;;;4994688;28;20113;-94
2024/03/13 04:15:50;;;;;;;7.97;1.40;;;;;;;;;;4994510;28;20469;-94
2024/03/13 04:18:15;;;;;;;11.07;1.83;;;;;;;;;;4995957;28;20113;-94
2024/03/13 04:20:42;;;;;;;5.95;0.82;;;;;;;;;;4994289;28;20440;-94
2024/03/13 04:23:08;;;;;;;6.63;0.75;;;;;;;;;;4994580;28;20038;-94
2024/03/13 04:25:36;;;;;;;4.65;0.40;;;;;;;;;;4995770;28;20010;-94
2024/03/13 04:28:02;;;;;;;4.85;0.70;;;;;;;;;;4995710;28;20018;-93
2024/03/13 04:30:29;;;;;;;4.75;0.77;;;;;;;;;;4994452;28;20022;-95
2024/03/13 04:32:54;;;;;;;7.45;1.20;;;;;;;;;;4994685;28;20018;-95
2024/03/13 04:35:20;;;;;;;6.80;1.00;;;;;;;;;;4994124;28;20028;-95
2024/03/13 04:37:45;;;;;;;8.88;1.00;;;;;;;;;;4994177;28;20084;-95
2024/03/13 04:40:10;;;;;;;5.10;0.77;;;;;;;;;;4994367;28;20097;-95
2024/03/13 04:42:36;;;;;;;4.00;0.77;;;;;;;;;;4994401;28;20029;-94
2024/03/13 04:45:02;;;;;;;4.45;0.70;;;;;;;;;;4994091;28;20058;-94
2024/03/13 04:47:27;;;;;;;7.13;1.05;;;;;;;;;;4994190;28;20026;-94
2024/03/13 04:49:52;;;;;;;5.88;0.75;;;;;;;;;;4993359;28;20025;-94
2024/03/13 04:52:20;;;;;;;7.85;0.93;;;;;;;;;;4994749;28;20026;-94
2024/03/13 04:54:45;;;;;;;10.43;1.10;;;;;;;;;;4994368;28;20027;-94
2024/03/13 04:57:10;;;;;;;7.38;0.93;;;;;;;;;;4994061;28;20035;-94
2024/03/13 04:59:36;;;;;;;5.43;0.88;;;;;;;;;;4995263;28;20026;-94
2024/03/13 05:02:02;;;;;;;6.78;0.80;;;;;;;;;;4995204;28;20018;-95
2024/03/13 05:04:27;;;;;;;7.20;1.20;;;;;;;;;;4993845;28;20022;-95
2024/03/13 05:06:56;;;;;;;6.55;0.95;;;;;;;;;;4993766;28;20018;-94
2024/03/13 05:09:21;;;;;;;6.88;0.65;;;;;;;;;;4993889;28;20018;-95
2024/03/13 05:11:47;;;;;;;4.18;0.63;;;;;;;;;;4993754;28;20115;-94
2024/03/13 05:14:12;;;;;;;3.92;0.60;;;;;;;;;;4993395;28;20018;-94
2024/03/13 05:16:41;;;;;;;6.45;0.80;;;;;;;;;;4993275;28;20045;-94
2024/03/13 05:19:07;;;;;;;6.82;0.90;;;;;;;;;;4993558;28;20030;-94
2024/03/13 05:21:32;;;;;;;6.38;0.88;;;;;;;;;;4993547;28;20108;-94
2024/03/13 05:23:58;;;;;;;5.93;1.02;;;;;;;;;;4993394;28;20023;-94
2024/03/13 05:26:27;;;;;;;5.38;0.85;;;;;;;;;;4993238;28;20022;-94
2024/03/13 05:28:54;;;;;;;4.15;0.98;;;;;;;;;;4993326;28;20049;-94
2024/03/13 05:31:19;;;;;;;6.65;0.93;;;;;;;;;;4993407;28;20018;-94
2024/03/13 05:33:45;;;;;;;5.72;1.52;;;;;;;;;;4994244;28;20072;-95
2024/03/13 05:36:11;;;;;;;3.40;0.57;;;;;;;;;;4993277;28;20014;-94
2024/03/13 05:38:36;;;;;;;5.82;0.80;;;;;;;;;;4992959;28;20064;-95
2024/03/13 05:41:02;;;;;;;7.72;1.20;;;;;;;;;;4993307;28;20404;-94
2024/03/13 05:43:28;;;;;;;4.82;0.93;;;;;;;;;;4993285;28;20029;-93
2024/03/13 05:45:53;;;;;;;7.85;1.05;;;;;;;;;;4994151;28;20022;-94
2024/03/13 05:48:18;;;;;;;6.25;1.10;;;;;;;;;;4993101;28;20111;-95
2024/03/13 05:50:44;;;;;;;7.72;1.20;;;;;;;;;;4992990;28;20023;-94
2024/03/13 05:53:09;;;;;;;4.80;0.65;;;;;;;;;;4993083;28;20022;-94
2024/03/13 05:55:34;;;;;;;6.78;1.15;;;;;;;;;;4993045;28;20054;-95
2024/03/13 05:57:59;;;;;;;7.55;0.80;;;;;;;;;;4994093;28;20408;-93
2024/03/13 06:00:26;;;;;;;7.03;1.17;;;;;;;;;;4992949;28;20029;-93
2024/03/13 06:02:52;;;;;;;8.60;1.23;;;;;;;;;;4992873;28;20122;-95
2024/03/13 06:05:17;;;;;;;6.65;0.77;;;;;;;;;;4993855;28;20023;-94
2024/03/13 06:07:42;;;;;;;4.47;1.02;;;;;;;;;;4992847;28;20033;-94
2024/03/13 06:10:11;;;;;;;9.30;1.35;;;;;;;;;;4993957;28;20030;-93
2024/03/13 06:12:36;;;;;;;10.70;0.90;;;;;;;;;;4993847;28;20156;-94
2024/03/13 06:15:07;;;;;;;7.28;1.13;;;;;;;;;;4993548;28;20053;-94
2024/03/13 06:17:36;;;;;;;9.23;1.98;;;;;;;;;;4992452;28;20030;-94
2024/03/13 06:20:22;;;;;;;11.52;1.00;;;;;;;;;;4993780;28;20029;-94
2024/03/13 06:22:47;;;;;;;7.13;0.82;;;;;;;;;;4993182;28;20053;-93
2024/03/13 06:25:13;;;;;;;8.07;1.15;;;;;;;;;;4992724;28;20015;-94
2024/03/13 06:27:39;;;;;;;5.38;0.82;;;;;;;;;;4992047;28;20026;-94
2024/03/13 06:30:05;;;;;;;8.23;1.10;;;;;;;;;;4992175;28;20029;-94
2024/03/13 06:32:30;;;;;;;7.25;1.40;;;;;;;;;;4992284;28;20060;-94
2024/03/13 06:34:56;;;;;;;8.43;1.13;;;;;;;;;;4992319;28;20018;-95
2024/03/13 06:37:24;;;;;;;9.18;1.38;;;;;;;;;;4992024;28;20468;-94
2024/03/13 06:39:50;;;;;;;7.43;0.88;;;;;;;;;;4992383;28;20088;-94
2024/03/13 06:42:16;;;;;;;9.68;0.98;;;;;;;;;;4993313;28;20034;-93
2024/03/13 06:44:41;;;;;;;2.60;0.70;;;;;;;;;;4993074;28;20018;-94
2024/03/13 06:47:07;;;;;;;7.03;1.25;;;;;;;;;;4992014;28;20065;-94
2024/03/13 06:49:32;;;;;;;6.80;0.93;;;;;;;;;;4992310;28;20133;-94
2024/03/13 06:51:58;;;;;;;4.05;0.90;;;;;;;;;;4992584;28;20050;-94
2024/03/13 06:54:23;;;;;;;10.82;1.13;;;;;;;;;;4992170;28;20109;-94
2024/03/13 06:56:48;;;;;;;12.30;1.10;;;;;;;;;;4991870;28;20387;-95
2024/03/13 06:59:17;;;;;;;7.25;1.25;;;;;;;;;;4992963;28;20046;-94
2024/03/13 07:01:45;;;;;;;7.97;1.40;;;;;;;;;;4992162;28;20507;-94
2024/03/13 07:04:11;;;;;;;5.15;1.00;;;;;;;;;;4991597;28;20100;-94
2024/03/13 07:06:36;;;;;;;15.85;1.33;;;;;;;;;;4991726;28;20083;-94
2024/03/13 07:09:01;;;;;;;9.05;1.20;;;;;;;;;;4993197;28;20353;-95
2024/03/13 07:11:28;;;;;;;11.88;1.50;;;;;;;;;;4991524;28;20066;-94
2024/03/13 07:13:53;;;;;;;5.72;0.88;;;;;;;;;;4993016;28;20036;-95
2024/03/13 07:16:19;;;;;;;6.72;1.17;;;;;;;;;;4995585;28;20097;-94
2024/03/13 07:18:44;;;;;;;5.30;0.90;;;;;;;;;;4995823;28;20041;-94
2024/03/13 07:21:09;;;;;;;7.13;1.00;;;;;;;;;;4995811;28;20030;-94
2024/03/13 07:23:35;;;;;;;9.05;1.20;;;;;;;;;;4995524;28;20101;-95
2024/03/13 07:26:00;;;;;;;7.97;0.95;;;;;;;;;;4995616;28;20072;-95
2024/03/13 07:28:26;;;;;;;6.00;1.02;;;;;;;;;;4995623;28;20177;-94
2024/03/13 07:30:51;;;;;;;13.73;1.10;;;;;;;;;;4995543;28;20018;-94
2024/03/13 07:33:16;;;;;;;7.72;0.95;;;;;;;;;;4995428;28;20117;-93
2024/03/13 07:35:42;;;;;;;8.63;1.48;;;;;;;;;;4995342;28;20030;-94
2024/03/13 07:38:10;;;;;;;6.30;1.10;;;;;;;;;;4995160;28;20093;-94
2024/03/13 07:40:37;;;;;;;6.70;0.95;;;;;;;;;;4995267;28;20061;-95
2024/03/13 07:43:03;;;;;;;5.68;1.17;;;;;;;;;;4995020;28;20044;-94
2024/03/13 07:45:28;;;;;;;6.70;1.25;;;;;;;;;;4995417;28;20019;-94
2024/03/13 07:47:53;;;;;;;13.38;0.98;;;;;;;;;;4995400;28;20026;-94
2024/03/13 07:50:18;;;;;;;6.43;1.23;;;;;;;;;;4995244;28;20023;-94
2024/03/13 07:52:46;;;;;;;10.38;1.20;;;;;;;;;;4995169;28;20097;-94
2024/03/13 07:55:11;;;;;;;8.50;0.95;;;;;;;;;;4995214;28;20027;-94
2024/03/13 07:57:37;;;;;;;7.13;0.85;;;;;;;;;;4994944;28;20117;-94
2024/03/13 08:00:02;;;;;;;7.22;0.75;;;;;;;;;;4995055;28;20468;-94
2024/03/13 08:02:27;;;;;;;8.18;1.08;;;;;;;;;;4994959;28;20049;-94
2024/03/13 08:04:53;;;;;;;7.53;0.90;;;;;;;;;;4994750;28;20018;-95
2024/03/13 08:07:20;;;;;;;6.97;1.00;;;;;;;;;;4994731;28;20022;-94
2024/03/13 08:09:45;;;;;;;4.50;0.88;;;;;;;;;;4995107;28;20025;-94
2024/03/13 08:12:13;;;;;;;10.88;1.10;;;;;;;;;;4994452;28;20544;-95
2024/03/13 08:14:38;;;;;;;5.40;0.85;;;;;;;;;;4994699;28;20519;-93
2024/03/13 08:17:06;;;;;;;3.25;0.50;;;;;;;;;;4994556;28;20026;-94
2024/03/13 08:19:31;;;;;;;5.32;0.57;;;;;;;;;;4994594;28;20487;-94
2024/03/13 08:21:57;;;;;;;3.95;0.63;;;;;;;;;;4994574;28;20026;-94
2024/03/13 08:24:26;;;;;;;13.13;1.85;;;;;;;;;;4994620;28;20369;-95
2024/03/13 08:26:51;;;;;;;3.35;0.90;;;;;;;;;;4993521;28;20104;-94
2024/03/13 08:29:16;;;;;;;5.35;0.60;;;;;;;;;;4995751;28;20480;-95
2024/03/13 08:31:47;;;;;;;3.80;0.85;;;;;;;;;;4994394;28;20018;-94
2024/03/13 08:34:14;;;;;;;7.38;0.80;;;;;;;;;;4994365;28;20019;-94
2024/03/13 08:36:39;;;;;;;6.57;1.30;;;;;;;;;;4994240;28;20026;-94
2024/03/13 08:39:05;;;;;;;5.38;0.55;;;;;;;;;;4994348;28;20027;-95
2024/03/13 08:41:31;;;;;;;4.22;0.77;;;;;;;;;;4994476;28;20029;-95
2024/03/13 08:43:56;;;;;;;5.57;0.90;;;;;;;;;;4994252;28;20113;-95
2024/03/13 08:46:21;;;;;;;9.02;0.80;;;;;;;;;;4994053;28;20146;-95
2024/03/13 08:48:47;;;;;;;3.65;0.80;;;;;;;;;;4994160;28;20029;-94
2024/03/13 08:51:12;;;;;;;4.63;0.65;;;;;;;;;;4994196;28;20018;-94
2024/03/13 08:53:37;;;;;;;2.38;0.50;;;;;;;;;;4994944;28;20030;-94
2024/03/13 08:56:02;;;;;;;4.93;0.70;;;;;;;;;;4994108;28;20073;-94
2024/03/13 08:58:28;;;;;;;4.50;1.02;;;;;;;;;;4993924;28;20037;-95
2024/03/13 09:00:55;;;;;;;5.28;0.88;;;;;;;;;;4995124;28;20022;-94
2024/03/13 09:03:20;;;;;;;6.82;0.57;;;;;;;;;;4993742;28;20026;-94
2024/03/13 09:05:47;;;;;;;7.93;0.98;;;;;;;;;;4995078;28;20084;-94
2024/03/13 09:08:13;;;;;;;4.80;0.57;;;;;;;;;;4993566;28;20023;-94
2024/03/13 09:10:38;;;;;;;5.90;1.30;;;;;;;;;;4993951;28;20022;-95
2024/03/13 09:13:04;;;;;;;5.72;0.85;;;;;;;;;;4993875;28;20029;-95
2024/03/13 09:15:30;;;;;;;5.57;0.95;;;;;;;;;;4993693;28;20476;-95
2024/03/13 09:17:55;;;;;;;5.70;1.00;;;;;;;;;;4993715;28;20044;-94
2024/03/13 09:20:25;;;;;;;6.25;0.90;;;;;;;;;;4993877;28;20022;-95
2024/03/13 09:22:50;;;;;;;9.75;1.00;;;;;;;;;;4993390;28;20026;-94
2024/03/13 09:25:16;;;;;;;6.68;1.05;;;;;;;;;;4993382;28;20542;-95
2024/03/13 09:27:41;;;;;;;7.22;0.90;;;;;;;;;;4993499;28;20439;-95
2024/03/13 09:30:08;;;;;;;6.82;1.10;;;;;;;;;;4993498;28;20021;-95
2024/03/13 09:32:34;;;;;;;6.55;1.50;;;;;;;;;;4993494;28;20022;-95
2024/03/13 09:34:59;;;;;;;7.50;1.40;;;;;;;;;;4992989;28;20089;-95
2024/03/13 09:37:26;;;;;;;8.40;1.05;;;;;;;;;;4992677;28;20370;-95
2024/03/13 09:39:52;;;;;;;5.15;1.38;;;;;;;;;;4993528;28;20026;-95
2024/03/13 09:42:17;;;;;;;6.80;0.90;;;;;;;;;;4993794;28;20019;-96
2024/03/13 09:44:43;;;;;;;8.95;1.13;;;;;;;;;;4993340;28;20385;-95
2024/03/13 09:47:09;;;;;;;9.27;1.20;;;;;;;;;;4993363;28;20040;-95
2024/03/13 09:49:35;;;;;;;6.10;1.35;;;;;;;;;;4993179;28;20512;-96
2024/03/13 09:52:01;;;;;;;8.77;1.40;;;;;;;;;;4993556;28;20018;-94
2024/03/13 09:54:26;;;;;;;9.82;1.27;;;;;;;;;;4992968;28;20054;-94
2024/03/13 09:56:51;;;;;;;6.90;1.50;;;;;;;;;;4992867;28;20027;-94
2024/03/13 09:59:16;;;;;;;5.60;1.58;;;;;;;;;;4992933;28;20027;-95
2024/03/13 10:01:47;;;;;;;9.05;1.17;;;;;;;;;;4976743;28;20104;-94
2024/03/13 10:04:16;;;;;;;8.55;1.27;;;;;;;;;;4992997;28;20073;-93
2024/03/13 10:06:43;;;;;;;11.57;1.45;;;;;;;;;;4992446;28;20068;-93
2024/03/13 10:09:14;;;;;;;7.47;1.55;;;;;;;;;;4993247;28;20029;-93
2024/03/13 10:11:44;;;;;;;7.10;0.98;;;;;;;;;;4992745;28;20026;-95
2024/03/13 10:14:11;;;;;;;3.35;0.85;;;;;;;;;;4992717;28;20053;-95
2024/03/13 10:16:39;;;;;;;7.28;0.80;;;;;;;;;;4992716;28;20030;-94
2024/03/13 10:19:06;;;;;;;5.78;1.17;;;;;;;;;;4992756;28;20030;-96
2024/03/13 10:21:31;;;;;;;5.35;0.60;;;;;;;;;;4992756;28;20495;-96
2024/03/13 10:23:58;;;;;;;5.43;0.82;;;;;;;;;;4992383;28;20030;-94
2024/03/13 10:26:24;;;;;;;7.38;0.98;;;;;;;;;;4993045;28;20014;-94
2024/03/13 10:28:49;;;;;;;7.30;0.82;;;;;;;;;;4992641;28;20433;-94
2024/03/13 10:31:16;;;;;;;9.60;1.10;;;;;;;;;;4992326;28;20022;-94
2024/03/13 10:33:41;;;;;;;8.48;1.13;;;;;;;;;;4992476;28;20081;-94
2024/03/13 10:36:07;;;;;;;5.70;1.13;;;;;;;;;;4992536;28;20022;-95
2024/03/13 10:38:34;;;;;;;8.23;1.15;;;;;;;;;;4992110;28;20041;-94
2024/03/13 10:41:00;;;;;;;6.70;1.02;;;;;;;;;;4992459;28;20109;-95
2024/03/13 10:43:27;;;;;;;8.85;1.08;;;;;;;;;;4991998;28;20489;-94
2024/03/13 10:45:53;;;;;;;10.23;1.27;;;;;;;;;;4992119;28;20023;-94
2024/03/13 10:48:20;;;;;;;4.65;0.80;;;;;;;;;;4991271;28;20045;-94
2024/03/13 10:50:46;;;;;;;6.28;0.95;;;;;;;;;;4993405;28;20019;-94
2024/03/13 10:53:11;;;;;;;8.32;1.20;;;;;;;;;;4992106;28;20022;-94
2024/03/13 10:55:37;;;;;;;7.07;1.20;;;;;;;;;;4993264;28;20022;-94
2024/03/13 10:58:03;;;;;;;16.70;1.70;;;;;;;;;;4992202;28;20053;-94
2024/03/13 11:00:30;;;;;;;14.23;1.95;;;;;;;;;;4992058;28;20019;-94
2024/03/13 11:02:56;;;;;;;12.18;1.55;;;;;;;;;;4992246;28;20022;-94
2024/03/13 11:05:22;;;;;;;10.52;1.73;;;;;;;;;;4991910;28;20021;-94
2024/03/13 11:07:48;;;;;;;10.82;1.90;;;;;;;;;;4992217;28;20018;-94
2024/03/13 11:10:14;;;;;;;13.48;1.90;;;;;;;;;;4992007;28;20702;-94
2024/03/13 11:12:42;;;;;;;15.05;1.90;;;;;;;;;;4991817;28;20109;-93
2024/03/13 11:15:09;;;;;;;7.82;1.17;;;;;;;;;;4991984;28;20531;-94
2024/03/13 11:17:35;;;;;;;9.35;1.33;;;;;;;;;;4991615;28;20125;-93
2024/03/13 11:20:01;;;;;;;18.42;1.92;;;;;;;;;;4992041;28;20011;-94
2024/03/13 11:22:28;;;;;;;8.20;2.15;;;;;;;;;;4992259;28;20570;-93
2024/03/13 11:24:53;;;;;;;9.20;1.50;;;;;;;;;;4991928;28;20077;-94
2024/03/13 11:27:20;;;;;;;7.47;1.52;;;;;;;;;;4991743;28;20026;-95
2024/03/13 11:29:49;;;;;;;11.05;1.65;;;;;;;;;;4991857;28;20022;-94
2024/03/13 11:32:14;;;;;;;13.60;1.80;;;;;;;;;;4991697;28;20014;-95
2024/03/13 11:34:40;;;;;;;12.13;1.67;;;;;;;;;;4991766;28;20033;-94
2024/03/13 11:37:09;;;;;;;14.05;1.45;;;;;;;;;;4991964;28;20026;-95
2024/03/13 11:39:34;;;;;;;10.55;1.30;;;;;;;;;;4992228;28;20034;-94
2024/03/13 11:42:05;;;;;;;10.90;2.80;;;;;;;;;;4992222;28;20366;-94
2024/03/13 11:44:31;;;;;;;10.38;1.40;;;;;;;;;;4991635;28;20026;-94
2024/03/13 11:47:00;;;;;;;18.17;1.90;;;;;;;;;;4992915;28;20031;-93
2024/03/13 11:49:25;;;;;;;17.13;2.42;;;;;;;;;;4991670;28;20014;-93
2024/03/13 11:52:02;;;;;;;8.70;1.58;;;;;;;;;;4991687;28;20064;-94
2024/03/13 11:54:30;;;;;;;18.45;3.25;;;;;;;;;;4991542;28;20022;-94
2024/03/13 11:57:03;;;;;;;15.90;1.67;;;;;;;;;;4991437;28;20025;-95
2024/03/13 11:59:41;;;;;;;14.60;2.00;;;;;;;;;;4991467;28;20054;-94
2024/03/13 12:02:26;;;;;;;8.90;1.88;;;;;;;;;;4995278;28;20011;-94
2024/03/13 12:04:51;;;;;;;9.57;2.20;;;;;;;;;;4995095;28;20022;-94
2024/03/13 12:07:17;;;;;;;12.32;1.83;;;;;;;;;;4994983;28;20041;-94
2024/03/13 12:09:43;;;;;;;11.85;2.15;;;;;;;;;;4994987;28;20022;-94
2024/03/13 12:12:12;;;;;;;9.20;1.63;;;;;;;;;;4995952;28;20057;-95
2024/03/13 12:14:38;;;;;;;12.90;1.80;;;;;;;;;;4996044;28;20026;-95
2024/03/13 12:17:05;;;;;;;8.52;1.77;;;;;;;;;;4994406;28;20373;-96
2024/03/13 12:19:30;;;;;;;13.68;2.25;;;;;;;;;;4994499;28;20018;-95
2024/03/13 12:21:57;;;;;;;13.30;2.95;;;;;;;;;;4994289;28;20023;-96
2024/03/13 12:24:22;;;;;;;12.65;1.98;;;;;;;;;;4994512;28;20023;-94
2024/03/13 12:26:51;;;;;;;5.78;1.65;;;;;;;;;;4994526;28;20033;-94
2024/03/13 12:29:16;;;;;;;11.85;2.35;;;;;;;;;;4994791;28;20109;-94
2024/03/13 12:31:42;;;;;;;9.45;1.52;;;;;;;;;;4994577;28;20062;-94
2024/03/13 12:34:10;;;;;;;7.90;1.45;;;;;;;;;;4994219;28;20029;-95
2024/03/13 12:36:43;;;;;;;9.15;2.08;;;;;;;;;;4994263;28;20472;-95
2024/03/13 12:39:10;;;;;;;11.70;1.38;;;;;;;;;;4994377;28;20070;-95
2024/03/13 12:41:35;;;;;;;9.35;2.08;;;;;;;;;;4994310;28;20024;-95
2024/03/13 12:44:03;;;;;;;9.30;2.17;;;;;;;;;;4994080;28;20019;-94
2024/03/13 12:46:29;;;;;;;11.85;1.75;;;;;;;;;;4993890;28;20046;-95
2024/03/13 12:48:55;;;;;;;12.45;1.92;;;;;;;;;;4994132;28;20465;-95
2024/03/13 12:51:20;;;;;;;16.50;1.73;;;;;;;;;;4993914;28;20077;-95
2024/03/13 12:53:46;;;;;;;11.00;1.88;;;;;;;;;;4994355;28;20019;-96
2024/03/13 12:56:11;;;;;;;9.52;1.65;;;;;;;;;;4993927;28;20022;-95
2024/03/13 12:58:36;;;;;;;13.90;2.05;;;;;;;;;;4993693;28;20031;-94
2024/03/13 13:01:02;;;;;;;9.85;2.00;;;;;;;;;;4994127;28;20468;-95
2024/03/13 13:03:28;;;;;;;11.00;1.75;;;;;;;;;;4993760;28;20388;-95
2024/03/13 13:05:53;;;;;;;11.60;1.80;;;;;;;;;;4993807;28;20464;-95
2024/03/13 13:08:21;;;;;;;16.38;2.42;;;;;;;;;;4994285;28;20022;-94
2024/03/13 13:10:50;;;;;;;10.77;2.08;;;;;;;;;;4993804;28;20117;-95
2024/03/13 13:13:15;;;;;;;9.93;1.65;;;;;;;;;;4993619;28;20437;-95
2024/03/13 13:15:41;;;;;;;14.20;2.75;;;;;;;;;;4993569;28;20130;-95
2024/03/13 13:18:07;;;;;;;12.13;1.88;;;;;;;;;;4993890;28;20539;-94
2024/03/13 13:20:33;;;;;;;11.68;1.73;;;;;;;;;;4993733;28;20022;-94
2024/03/13 13:22:58;;;;;;;9.73;1.80;;;;;;;;;;4994652;28;20134;-95
2024/03/13 13:25:26;;;;;;;10.57;2.10;;;;;;;;;;4994873;28;20093;-94
2024/03/13 13:27:54;;;;;;;14.00;2.00;;;;;;;;;;4993818;28;20029;-95
2024/03/13 13:30:19;;;;;;;11.30;2.30;;;;;;;;;;4993956;28;20473;-95
2024/03/13 13:32:45;;;;;;;17.75;2.00;;;;;;;;;;4994920;28;20028;-95
2024/03/13 13:35:16;;;;;;;15.77;2.13;;;;;;;;;;4993425;28;20469;-95
2024/03/13 13:37:42;;;;;;;9.55;1.70;;;;;;;;;;4993462;28;20132;-95
2024/03/13 13:40:19;;;;;;;14.90;1.83;;;;;;;;;;4993250;28;20058;-95
2024/03/13 13:42:45;;;;;;;13.30;2.08;;;;;;;;;;4993093;28;20018;-95
2024/03/13 13:45:11;;;;;;;12.15;2.58;;;;;;;;;;4993106;28;20018;-95
2024/03/13 13:47:40;;;;;;;17.35;2.90;;;;;;;;;;4994794;28;20109;-95
2024/03/13 13:50:10;;;;;;;16.33;2.03;;;;;;;;;;4994241;28;20057;-95
2024/03/13 13:52:35;;;;;;;11.02;2.10;;;;;;;;;;4994952;28;20038;-95
2024/03/13 13:55:01;;;;;;;8.15;1.67;;;;;;;;;;4994288;28;20019;-95
2024/03/13 13:57:26;;;;;;;16.08;2.55;;;;;;;;;;4993673;28;20033;-95
2024/03/13 13:59:51;;;;;;;17.13;2.97;;;;;;;;;;4994498;28;20026;-96
2024/03/13 14:02:18;;;;;;;15.68;2.33;;;;;;;;;;4993993;28;20363;-95
2024/03/13 14:04:43;;;;;;;17.17;3.33;;;;;;;;;;4994303;28;20081;-95
2024/03/13 14:07:08;;;;;;;12.20;2.33;;;;;;;;;;4994477;28;20045;-95
2024/03/13 14:09:34;;;;;;;12.10;2.35;;;;;;;;;;4994136;28;20500;-95
2024/03/13 14:11:59;;;;;;;14.52;2.38;;;;;;;;;;4993876;28;20389;-95
2024/03/13 14:14:24;;;;;;;13.30;2.10;;;;;;;;;;4993664;28;20018;-94
2024/03/13 14:16:49;;;;;;;15.73;2.83;;;;;;;;;;4994128;28;20499;-95
2024/03/13 14:19:15;;;;;;;11.27;2.17;;;;;;;;;;4994218;28;20275;-95
2024/03/13 14:21:40;;;;;;;14.10;2.53;;;;;;;;;;4994611;28;20758;-95
2024/03/13 14:24:06;;;;;;;16.63;2.10;;;;;;;;;;4993808;28;20019;-95
2024/03/13 14:26:32;;;;;;;8.82;2.50;;;;;;;;;;4993265;28;20113;-95
2024/03/13 14:28:57;;;;;;;9.00;2.15;;;;;;;;;;4993469;28;20050;-95
2024/03/13 14:31:22;;;;;;;14.57;1.80;;;;;;;;;;4995158;28;20400;-95
2024/03/13 14:33:48;;;;;;;14.60;2.63;;;;;;;;;;4993642;28;20661;-95
2024/03/13 14:36:13;;;;;;;17.23;2.22;;;;;;;;;;4993975;28;20325;-95
2024/03/13 14:38:41;;;;;;;7.15;1.63;;;;;;;;;;4993588;28;20034;-95
2024/03/13 14:41:12;;;;;;;13.48;2.55;;;;;;;;;;4994143;28;20105;-95
2024/03/13 14:43:39;;;;;;;12.73;2.25;;;;;;;;;;4993530;28;20037;-95
2024/03/13 14:46:04;;;;;;;16.02;2.47;;;;;;;;;;4993704;28;20468;-95
2024/03/13 14:48:29;;;;;;;19.87;2.17;;;;;;;;;;4993882;28;20028;-96
2024/03/13 14:50:54;;;;;;;11.00;1.70;;;;;;;;;;4993655;28;20260;-95
2024/03/13 14:53:20;;;;;;;6.88;1.83;;;;;;;;;;4993561;28;20264;-95